createdAt,value
2022-11-20T00:04:43.079Z,99498.34
2022-11-20T00:09:46.134Z,99496.69
2022-11-20T00:14:49.103Z,99495.97
2022-11-20T00:19:51.633Z,99496.22
2022-11-20T00:24:54.184Z,99498.03
2022-11-20T00:29:56.979Z,99503.75
2022-11-20T00:34:59.560Z,99500.75
2022-11-20T00:40:02.143Z,99502.53
2022-11-20T00:45:06.064Z,99516.44
2022-11-20T00:50:09.070Z,99501.72
2022-11-20T00:55:11.694Z,99498.94
2022-11-20T01:00:16.365Z,99484.81
2022-11-20T01:05:18.880Z,99503.03
2022-11-20T01:10:21.456Z,99508.69
2022-11-20T01:15:23.981Z,99498.50
2022-11-20T01:20:26.501Z,99504.47
2022-11-20T01:25:29.794Z,99504.81
2022-11-20T01:30:32.386Z,99501.47
2022-11-20T01:35:34.920Z,99507.59
2022-11-20T01:40:37.442Z,99482.28
2022-11-20T01:45:57.305Z,99515.16
2022-11-20T01:51:01.984Z,99526.47
2022-11-20T01:56:09.575Z,99524.75
2022-11-20T02:01:13.831Z,99535.25
2022-11-20T02:06:23.992Z,99544.16
2022-11-20T02:11:26.524Z,99549.41
2022-11-20T02:16:33.389Z,99553.47
2022-11-20T02:22:00.395Z,99549.69
2022-11-20T02:27:12.014Z,99553.84
2022-11-20T02:32:32.952Z,99566.09
2022-11-20T02:37:39.863Z,99553.94
2022-11-20T02:42:42.511Z,99529.38
2022-11-20T02:47:45.173Z,99566.34
2022-11-20T02:52:47.924Z,99555.19
2022-11-20T02:57:50.506Z,99572.81
2022-11-20T03:02:53.179Z,99582.91
2022-11-20T03:07:55.708Z,99577.41
2022-11-20T03:12:58.407Z,99583.34
2022-11-20T03:18:00.945Z,99579.09
2022-11-20T03:23:03.851Z,99579.56
2022-11-20T03:28:06.537Z,99574.84
2022-11-20T03:33:09.334Z,99589.22
2022-11-20T03:38:11.881Z,99563.25
2022-11-20T03:43:14.408Z,99590.09
2022-11-20T03:48:16.914Z,99585.03
2022-11-20T03:53:19.664Z,99597.91
2022-11-20T03:58:22.174Z,99574.47
2022-11-20T04:03:24.787Z,99596.44
2022-11-20T04:08:27.411Z,99614.28
2022-11-20T04:13:29.972Z,99616.22
2022-11-20T04:18:33.818Z,99622.16
2022-11-20T04:23:36.425Z,99632.53
2022-11-20T04:28:40.051Z,99638.09
2022-11-20T04:33:43.918Z,99638.59
2022-11-20T04:38:47.042Z,99642.47
2022-11-20T04:43:51.551Z,99644.03
2022-11-20T04:48:54.564Z,99661.72
2022-11-20T04:53:57.759Z,99662.78
2022-11-20T04:59:03.773Z,99656.66
2022-11-20T05:04:06.931Z,99669.34
2022-11-20T05:09:09.544Z,99675.09
2022-11-20T05:14:12.110Z,99686.22
2022-11-20T05:19:14.838Z,99676.13
2022-11-20T05:24:17.372Z,99692.97
2022-11-20T05:29:20.460Z,99690.56
2022-11-20T05:34:23.604Z,99672.50
2022-11-20T05:39:26.094Z,99714.56
2022-11-20T05:44:28.646Z,99703.44
2022-11-20T05:49:31.179Z,99711.31
2022-11-20T05:54:33.817Z,99726.09
2022-11-20T05:59:36.291Z,99740.09
2022-11-20T06:04:38.858Z,99736.25
2022-11-20T06:09:41.640Z,99748.50
2022-11-20T06:14:44.362Z,99761.06
2022-11-20T06:19:47.041Z,99765.56
2022-11-20T06:24:49.717Z,99771.88
2022-11-20T06:29:52.203Z,99776.97
2022-11-20T06:34:54.855Z,99776.00
2022-11-20T06:39:57.411Z,99770.59
2022-11-20T06:44:59.989Z,99766.88
2022-11-20T06:50:02.679Z,99767.09
2022-11-20T06:55:06.438Z,99730.72
2022-11-20T07:00:09.593Z,99749.84
2022-11-20T07:05:12.380Z,99767.03
2022-11-20T07:10:15.045Z,99772.81
2022-11-20T07:15:18.338Z,99702.66
2022-11-20T07:20:21.054Z,99766.72
2022-11-20T07:25:24.598Z,99762.09
2022-11-20T07:30:28.795Z,99787.53
2022-11-20T07:35:31.394Z,99790.63
2022-11-20T07:40:33.974Z,99782.66
2022-11-20T07:45:36.525Z,99788.75
2022-11-20T07:50:39.626Z,99792.31
2022-11-20T07:55:42.144Z,99786.31
2022-11-20T08:00:44.753Z,99793.03
2022-11-20T08:05:47.273Z,99781.56
2022-11-20T08:10:49.835Z,99784.75
2022-11-20T08:15:52.469Z,99806.84
2022-11-20T08:20:55.058Z,99817.16
2022-11-20T08:25:57.536Z,99806.38
2022-11-20T08:31:04.320Z,99823.00
2022-11-20T08:36:08.392Z,99821.00
2022-11-20T08:41:29.298Z,99829.09
2022-11-20T08:46:37.956Z,99836.28
2022-11-20T08:51:41.025Z,99833.09
2022-11-20T08:56:43.556Z,99832.56
2022-11-20T09:01:46.132Z,99859.03
2022-11-20T09:06:52.031Z,99873.59
2022-11-20T09:11:54.801Z,99881.31
2022-11-20T09:16:57.825Z,99891.03
2022-11-20T09:22:01.146Z,99886.56
2022-11-20T09:27:05.565Z,99915.06
2022-11-20T09:32:08.134Z,99929.81
2022-11-20T09:37:11.160Z,99933.41
2022-11-20T09:42:38.507Z,99929.16
2022-11-20T09:48:00.705Z,99927.34
2022-11-20T09:53:14.708Z,99914.84
2022-11-20T09:58:41.247Z,99902.38
2022-11-20T10:03:59.154Z,99935.53
2022-11-20T10:09:15.398Z,99942.88
2022-11-20T10:14:42.574Z,99945.25
2022-11-20T10:20:28.061Z,99934.47
2022-11-20T10:25:59.077Z,99942.25
2022-11-20T10:31:05.562Z,99947.84
2022-11-20T10:36:20.226Z,99944.00
2022-11-20T10:41:31.926Z,99946.22
2022-11-20T10:46:59.928Z,99959.28
2022-11-20T10:52:26.912Z,99968.66
2022-11-20T10:58:08.236Z,99975.19
2022-11-20T11:03:24.406Z,99963.81
2022-11-20T11:08:34.141Z,99968.84
2022-11-20T11:13:36.771Z,99995.59
2022-11-20T11:18:41.139Z,99988.44
2022-11-20T11:23:44.480Z,99993.91
2022-11-20T11:28:57.863Z,99989.94
2022-11-20T11:34:17.980Z,100007.06
2022-11-20T11:39:22.457Z,99995.78
2022-11-20T11:45:03.310Z,99980.91
2022-11-20T11:50:26.535Z,99980.16
2022-11-20T11:55:44.215Z,99995.06
2022-11-20T12:00:55.227Z,99969.22
2022-11-20T12:06:17.447Z,100007.41
2022-11-20T12:12:05.980Z,100008.34
2022-11-20T12:17:12.837Z,100002.84
2022-11-20T12:22:50.116Z,100007.28
2022-11-20T12:28:37.965Z,99941.50
2022-11-20T12:33:52.654Z,99994.31
2022-11-20T12:39:03.678Z,99999.28
2022-11-20T12:44:54.506Z,100005.50
2022-11-20T12:50:06.193Z,100009.09
2022-11-20T12:55:18.106Z,100018.78
2022-11-20T13:00:24.609Z,100029.94
2022-11-20T13:05:39.231Z,100035.44
2022-11-20T13:10:52.886Z,100033.94
2022-11-20T13:16:17.136Z,100034.38
2022-11-20T13:21:36.829Z,100024.47
2022-11-20T13:26:40.047Z,100043.41
2022-11-20T13:31:46.452Z,100029.25
2022-11-20T13:36:54.349Z,100059.09
2022-11-20T13:42:02.760Z,100044.47
2022-11-20T13:47:21.001Z,100061.63
2022-11-20T13:52:45.347Z,100056.94
2022-11-20T13:57:47.743Z,100069.69
2022-11-20T14:02:59.128Z,100065.66
2022-11-20T14:08:06.697Z,100064.78
2022-11-20T14:13:21.688Z,100068.41
2022-11-20T14:18:27.010Z,100083.66
2022-11-20T14:23:30.606Z,100089.19
2022-11-20T14:28:33.607Z,100103.50
2022-11-20T14:33:37.793Z,100082.28
2022-11-20T14:38:41.720Z,100090.03
2022-11-20T14:43:48.646Z,100109.09
2022-11-20T14:49:01.335Z,100117.88
2022-11-20T14:54:10.917Z,100113.38
2022-11-20T14:59:27.483Z,100084.41
2022-11-20T15:04:31.276Z,100108.44
2022-11-20T15:09:34.682Z,100110.91
2022-11-20T15:14:37.771Z,100100.88
2022-11-20T15:19:40.329Z,100091.81
2022-11-20T15:24:43.427Z,100093.25
2022-11-20T15:29:46.056Z,100086.25
2022-11-20T15:34:48.695Z,100093.31
2022-11-20T15:39:51.470Z,100104.34
2022-11-20T15:44:53.972Z,100083.09
2022-11-20T15:49:56.759Z,100092.88
2022-11-20T15:54:59.311Z,100083.56
2022-11-20T16:00:02.030Z,100110.84
2022-11-20T16:05:14.996Z,100108.03
2022-11-20T16:10:17.633Z,100093.88
2022-11-20T16:15:38.560Z,100105.84
2022-11-20T16:20:41.128Z,100090.34
2022-11-20T16:25:44.495Z,100081.19
2022-11-20T16:30:47.510Z,100082.66
2022-11-20T16:35:50.115Z,100082.91
2022-11-20T16:40:52.668Z,100080.06
2022-11-20T16:45:55.288Z,100091.00
2022-11-20T16:50:57.808Z,100093.88
2022-11-20T16:56:14.282Z,100098.84
2022-11-20T17:01:21.578Z,100100.03
2022-11-20T17:06:26.945Z,100093.47
2022-11-20T17:11:29.771Z,100064.59
2022-11-20T17:16:32.460Z,100043.25
2022-11-20T17:21:36.526Z,100079.00
2022-11-20T17:26:41.672Z,100081.09
2022-11-20T17:31:45.307Z,100087.88
2022-11-20T17:36:47.894Z,100098.09
2022-11-20T17:42:10.396Z,100110.75
2022-11-20T17:47:13.584Z,100066.38
2022-11-20T17:52:17.182Z,100097.34
2022-11-20T17:57:38.727Z,100095.25
2022-11-20T18:02:41.248Z,100097.56
2022-11-20T18:07:44.464Z,100094.88
2022-11-20T18:12:46.973Z,100070.63
2022-11-20T18:17:49.523Z,100086.84
2022-11-20T18:22:52.090Z,100087.91
2022-11-20T18:27:54.764Z,100091.84
2022-11-20T18:32:57.723Z,100108.00
2022-11-20T18:38:00.364Z,100105.69
2022-11-20T18:43:21.990Z,100100.28
2022-11-20T18:48:24.636Z,100106.06
2022-11-20T18:53:27.188Z,100118.53
2022-11-20T18:58:29.763Z,100104.03
2022-11-20T19:03:32.453Z,100092.94
2022-11-20T19:08:36.359Z,100087.78
2022-11-20T19:13:39.651Z,100070.88
2022-11-20T19:18:43.778Z,100068.00
2022-11-20T19:23:51.664Z,100060.91
2022-11-20T19:28:55.350Z,100049.41
2022-11-20T19:34:02.857Z,100059.78
2022-11-20T19:39:07.728Z,100054.22
2022-11-20T19:44:14.007Z,100060.59
2022-11-20T19:49:16.635Z,100054.81
2022-11-20T19:54:19.232Z,100064.97
2022-11-20T19:59:22.027Z,100048.13
2022-11-20T20:04:25.111Z,100081.34
2022-11-20T20:09:27.706Z,100092.09
2022-11-20T20:14:31.583Z,100093.47
2022-11-20T20:19:34.288Z,100093.06
2022-11-20T20:24:36.817Z,100096.69
2022-11-20T20:29:39.431Z,100098.75
2022-11-20T20:34:42.323Z,100092.56
2022-11-20T20:39:44.851Z,100093.94
2022-11-20T20:45:05.826Z,100085.31
2022-11-20T20:50:11.185Z,100100.50
2022-11-20T20:55:13.847Z,100095.09
2022-11-20T21:00:18.139Z,100097.16
2022-11-20T21:05:20.730Z,100096.41
2022-11-20T21:10:23.991Z,100093.41
2022-11-20T21:15:27.035Z,100108.91
2022-11-20T21:20:48.003Z,100090.31
2022-11-20T21:25:50.515Z,100103.13
2022-11-20T21:30:53.141Z,100101.16
2022-11-20T21:35:58.524Z,100062.94
2022-11-20T21:41:01.942Z,100078.44
2022-11-20T21:46:09.915Z,100069.63
2022-11-20T21:51:15.400Z,100087.78
2022-11-20T21:56:20.701Z,100056.22
2022-11-20T22:01:29.432Z,100094.75
2022-11-20T22:06:34.105Z,100102.22
2022-11-20T22:16:39.400Z,100092.56
2022-11-20T22:21:42.130Z,100090.13
2022-11-20T22:26:44.932Z,100081.44
2022-11-20T22:31:48.068Z,100095.94
2022-11-20T22:36:50.604Z,100087.06
2022-11-20T22:41:53.127Z,100085.84
2022-11-20T22:46:55.686Z,100085.44
2022-11-20T22:51:58.231Z,100045.41
2022-11-20T22:57:00.787Z,100074.25
2022-11-20T23:02:03.421Z,100063.66
2022-11-20T23:07:06.155Z,100023.31
2022-11-20T23:12:08.695Z,100043.78
2022-11-20T23:17:11.232Z,100041.75
2022-11-20T23:22:13.759Z,100026.25
2022-11-20T23:27:19.669Z,100042.53
2022-11-20T23:32:22.603Z,100035.25
2022-11-20T23:37:25.118Z,100039.91
2022-11-20T23:42:27.694Z,100031.22
2022-11-20T23:47:30.266Z,100026.94
2022-11-20T23:52:32.862Z,100033.97
2022-11-20T23:57:35.496Z,100025.13
